sensor_id;sensor_type;location;lat;lon;timestamp;pressure;altitude;pressure_sealevel;temperature;humidity
57628;BME280;43451;49.060;10.616;2024-01-11T00:01:17;97654.69;;;-6.07;100.00
57628;BME280;43451;49.060;10.616;2024-01-11T00:03:43;97649.91;;;-6.10;100.00
57628;BME280;43451;49.060;10.616;2024-01-11T00:06:09;97652.25;;;-6.24;100.00
57628;BME280;43451;49.060;10.616;2024-01-11T00:08:34;97659.25;;;-6.55;100.00
57628;BME280;43451;49.060;10.616;2024-01-11T00:11:00;97654.25;;;-6.51;100.00
57628;BME280;43451;49.060;10.616;2024-01-11T00:13:25;97657.91;;;-6.63;100.00
57628;BME280;43451;49.060;10.616;2024-01-11T00:15:51;97660.56;;;-6.58;100.00
57628;BME280;43451;49.060;10.616;2024-01-11T00:18:17;97660.34;;;-6.51;100.00
57628;BME280;43451;49.060;10.616;2024-01-11T00:20:43;97655.91;;;-6.40;100.00
57628;BME280;43451;49.060;10.616;2024-01-11T00:23:08;97664.09;;;-6.32;100.00
57628;BME280;43451;49.060;10.616;2024-01-11T00:25:34;97666.50;;;-6.30;100.00
57628;BME280;43451;49.060;10.616;2024-01-11T00:28:00;97667.03;;;-6.33;100.00
57628;BME280;43451;49.060;10.616;2024-01-11T00:30:27;97666.75;;;-6.32;100.00
57628;BME280;43451;49.060;10.616;2024-01-11T00:32:52;97666.78;;;-6.26;100.00
57628;BME280;43451;49.060;10.616;2024-01-11T00:35:17;97663.34;;;-6.22;100.00
57628;BME280;43451;49.060;10.616;2024-01-11T00:37:43;97672.38;;;-6.18;100.00
57628;BME280;43451;49.060;10.616;2024-01-11T00:40:09;97664.47;;;-6.08;100.00
57628;BME280;43451;49.060;10.616;2024-01-11T00:42:34;97660.50;;;-6.10;100.00
57628;BME280;43451;49.060;10.616;2024-01-11T00:45:00;97674.03;;;-5.86;100.00
57628;BME280;43451;49.060;10.616;2024-01-11T00:47:25;97661.59;;;-5.75;100.00
57628;BME280;43451;49.060;10.616;2024-01-11T00:49:52;97671.91;;;-5.79;100.00
57628;BME280;43451;49.060;10.616;2024-01-11T00:52:17;97674.31;;;-5.67;100.00
57628;BME280;43451;49.060;10.616;2024-01-11T00:54:43;97675.66;;;-5.60;100.00
57628;BME280;43451;49.060;10.616;2024-01-11T00:57:08;97669.75;;;-5.87;100.00
57628;BME280;43451;49.060;10.616;2024-01-11T00:59:34;97677.16;;;-5.99;100.00
57628;BME280;43451;49.060;10.616;2024-01-11T01:01:59;97683.28;;;-5.99;100.00
57628;BME280;43451;49.060;10.616;2024-01-11T01:04:25;97684.34;;;-5.79;100.00
57628;BME280;43451;49.060;10.616;2024-01-11T01:06:50;97680.66;;;-5.68;100.00
57628;BME280;43451;49.060;10.616;2024-01-11T01:09:15;97681.69;;;-5.85;100.00
57628;BME280;43451;49.060;10.616;2024-01-11T01:11:41;97681.13;;;-5.92;100.00
57628;BME280;43451;49.060;10.616;2024-01-11T01:14:06;97683.00;;;-5.87;100.00
57628;BME280;43451;49.060;10.616;2024-01-11T01:16:32;97687.75;;;-5.89;100.00
57628;BME280;43451;49.060;10.616;2024-01-11T01:18:57;97681.94;;;-5.96;100.00
57628;BME280;43451;49.060;10.616;2024-01-11T01:21:23;97682.44;;;-6.10;100.00
57628;BME280;43451;49.060;10.616;2024-01-11T01:23:48;97681.91;;;-6.07;100.00
57628;BME280;43451;49.060;10.616;2024-01-11T01:26:14;97678.25;;;-5.95;100.00
57628;BME280;43451;49.060;10.616;2024-01-11T01:28:39;97681.09;;;-6.12;100.00
57628;BME280;43451;49.060;10.616;2024-01-11T01:31:05;97688.44;;;-6.29;100.00
57628;BME280;43451;49.060;10.616;2024-01-11T01:33:30;97691.66;;;-6.22;100.00
57628;BME280;43451;49.060;10.616;2024-01-11T01:35:56;97690.53;;;-6.32;100.00
57628;BME280;43451;49.060;10.616;2024-01-11T01:38:22;97694.53;;;-6.34;100.00
57628;BME280;43451;49.060;10.616;2024-01-11T01:40:47;97698.41;;;-6.52;100.00
57628;BME280;43451;49.060;10.616;2024-01-11T01:43:13;97694.91;;;-6.63;100.00
57628;BME280;43451;49.060;10.616;2024-01-11T01:45:38;97690.06;;;-6.76;100.00
57628;BME280;43451;49.060;10.616;2024-01-11T01:48:04;97698.25;;;-6.78;100.00
57628;BME280;43451;49.060;10.616;2024-01-11T01:50:30;97697.19;;;-6.77;100.00
57628;BME280;43451;49.060;10.616;2024-01-11T01:52:56;97703.59;;;-6.67;100.00
57628;BME280;43451;49.060;10.616;2024-01-11T01:55:23;97696.22;;;-6.65;100.00
57628;BME280;43451;49.060;10.616;2024-01-11T01:57:50;97704.66;;;-6.68;100.00
57628;BME280;43451;49.060;10.616;2024-01-11T02:00:16;97699.84;;;-6.77;100.00
57628;BME280;43451;49.060;10.616;2024-01-11T02:02:46;97697.56;;;-6.63;100.00
57628;BME280;43451;49.060;10.616;2024-01-11T02:05:16;97702.09;;;-6.53;100.00
57628;BME280;43451;49.060;10.616;2024-01-11T02:07:42;97698.13;;;-6.50;100.00
57628;BME280;43451;49.060;10.616;2024-01-11T02:10:07;97697.34;;;-6.51;100.00
57628;BME280;43451;49.060;10.616;2024-01-11T02:12:36;97704.16;;;-6.60;100.00
57628;BME280;43451;49.060;10.616;2024-01-11T02:15:05;97701.34;;;-6.43;100.00
57628;BME280;43451;49.060;10.616;2024-01-11T02:17:31;97700.47;;;-6.54;100.00
57628;BME280;43451;49.060;10.616;2024-01-11T02:19:57;97704.22;;;-6.50;100.00
57628;BME280;43451;49.060;10.616;2024-01-11T02:22:28;97704.44;;;-6.57;100.00
57628;BME280;43451;49.060;10.616;2024-01-11T02:24:54;97699.16;;;-6.57;100.00
57628;BME280;43451;49.060;10.616;2024-01-11T02:27:20;97691.72;;;-6.65;100.00
57628;BME280;43451;49.060;10.616;2024-01-11T02:29:45;97694.03;;;-6.73;100.00
57628;BME280;43451;49.060;10.616;2024-01-11T02:32:11;97693.19;;;-6.84;100.00
57628;BME280;43451;49.060;10.616;2024-01-11T02:34:37;97685.38;;;-6.69;100.00
57628;BME280;43451;49.060;10.616;2024-01-11T02:37:03;97685.25;;;-6.32;100.00
57628;BME280;43451;49.060;10.616;2024-01-11T02:39:29;97681.81;;;-6.37;100.00
57628;BME280;43451;49.060;10.616;2024-01-11T02:41:56;97689.03;;;-6.70;100.00
57628;BME280;43451;49.060;10.616;2024-01-11T02:44:21;97680.69;;;-6.51;100.00
57628;BME280;43451;49.060;10.616;2024-01-11T02:46:47;97688.00;;;-6.69;100.00
57628;BME280;43451;49.060;10.616;2024-01-11T02:49:12;97684.78;;;-6.76;100.00
57628;BME280;43451;49.060;10.616;2024-01-11T02:51:38;97696.59;;;-6.89;100.00
57628;BME280;43451;49.060;10.616;2024-01-11T02:54:03;97697.38;;;-6.88;100.00
57628;BME280;43451;49.060;10.616;2024-01-11T02:56:29;97698.78;;;-6.75;100.00
57628;BME280;43451;49.060;10.616;2024-01-11T02:58:54;97686.38;;;-6.75;100.00
57628;BME280;43451;49.060;10.616;2024-01-11T03:01:20;97680.88;;;-6.68;100.00
57628;BME280;43451;49.060;10.616;2024-01-11T03:03:45;97681.66;;;-6.68;100.00
57628;BME280;43451;49.060;10.616;2024-01-11T03:06:10;97683.19;;;-6.77;100.00
57628;BME280;43451;49.060;10.616;2024-01-11T03:08:36;97685.22;;;-6.89;100.00
57628;BME280;43451;49.060;10.616;2024-01-11T03:11:02;97677.34;;;-6.84;100.00
57628;BME280;43451;49.060;10.616;2024-01-11T03:13:27;97676.19;;;-6.98;100.00
57628;BME280;43451;49.060;10.616;2024-01-11T03:15:52;97680.44;;;-6.92;100.00
57628;BME280;43451;49.060;10.616;2024-01-11T03:18:18;97665.63;;;-6.98;100.00
57628;BME280;43451;49.060;10.616;2024-01-11T03:20:44;97666.88;;;-7.11;100.00
57628;BME280;43451;49.060;10.616;2024-01-11T03:23:09;97675.78;;;-7.17;100.00
57628;BME280;43451;49.060;10.616;2024-01-11T03:25:35;97678.13;;;-6.84;100.00
57628;BME280;43451;49.060;10.616;2024-01-11T03:28:00;97679.81;;;-7.10;100.00
57628;BME280;43451;49.060;10.616;2024-01-11T03:30:26;97679.19;;;-7.22;100.00
57628;BME280;43451;49.060;10.616;2024-01-11T03:32:51;97672.78;;;-7.31;100.00
57628;BME280;43451;49.060;10.616;2024-01-11T03:35:18;97681.78;;;-7.27;100.00
57628;BME280;43451;49.060;10.616;2024-01-11T03:37:44;97676.50;;;-7.27;100.00
57628;BME280;43451;49.060;10.616;2024-01-11T03:40:10;97665.13;;;-7.33;100.00
57628;BME280;43451;49.060;10.616;2024-01-11T03:42:36;97676.56;;;-7.22;100.00
57628;BME280;43451;49.060;10.616;2024-01-11T03:45:03;97668.94;;;-7.18;100.00
57628;BME280;43451;49.060;10.616;2024-01-11T03:47:28;97672.44;;;-7.40;100.00
57628;BME280;43451;49.060;10.616;2024-01-11T03:49:54;97673.72;;;-7.48;100.00
57628;BME280;43451;49.060;10.616;2024-01-11T03:52:19;97662.88;;;-7.51;100.00
57628;BME280;43451;49.060;10.616;2024-01-11T03:54:44;97670.44;;;-7.60;100.00
57628;BME280;43451;49.060;10.616;2024-01-11T03:57:10;97668.59;;;-7.59;100.00
57628;BME280;43451;49.060;10.616;2024-01-11T03:59:35;97666.47;;;-7.62;100.00
57628;BME280;43451;49.060;10.616;2024-01-11T04:02:01;97669.91;;;-7.62;100.00
57628;BME280;43451;49.060;10.616;2024-01-11T04:04:26;97668.75;;;-7.71;100.00
57628;BME280;43451;49.060;10.616;2024-01-11T04:06:52;97667.44;;;-7.74;100.00
57628;BME280;43451;49.060;10.616;2024-01-11T04:09:18;97672.44;;;-7.72;100.00
57628;BME280;43451;49.060;10.616;2024-01-11T04:11:43;97664.88;;;-7.63;100.00
57628;BME280;43451;49.060;10.616;2024-01-11T04:14:09;97672.09;;;-7.54;100.00
57628;BME280;43451;49.060;10.616;2024-01-11T04:16:39;97667.16;;;-7.45;100.00
57628;BME280;43451;49.060;10.616;2024-01-11T04:19:05;97668.47;;;-7.42;100.00
57628;BME280;43451;49.060;10.616;2024-01-11T04:21:30;97672.97;;;-7.43;100.00
57628;BME280;43451;49.060;10.616;2024-01-11T04:23:56;97662.66;;;-7.44;100.00
57628;BME280;43451;49.060;10.616;2024-01-11T04:26:22;97666.97;;;-7.33;100.00
57628;BME280;43451;49.060;10.616;2024-01-11T04:28:49;97664.25;;;-7.43;100.00
57628;BME280;43451;49.060;10.616;2024-01-11T04:31:15;97668.75;;;-7.44;100.00
57628;BME280;43451;49.060;10.616;2024-01-11T04:33:43;97660.56;;;-7.42;100.00
57628;BME280;43451;49.060;10.616;2024-01-11T04:36:09;97653.47;;;-7.37;100.00
57628;BME280;43451;49.060;10.616;2024-01-11T04:38:35;97654.50;;;-7.43;100.00
57628;BME280;43451;49.060;10.616;2024-01-11T04:41:01;97658.47;;;-7.40;100.00
57628;BME280;43451;49.060;10.616;2024-01-11T04:43:26;97660.50;;;-7.15;100.00
57628;BME280;43451;49.060;10.616;2024-01-11T04:45:52;97666.50;;;-7.25;100.00
57628;BME280;43451;49.060;10.616;2024-01-11T04:48:17;97673.38;;;-7.24;100.00
57628;BME280;43451;49.060;10.616;2024-01-11T04:50:44;97664.94;;;-7.26;100.00
57628;BME280;43451;49.060;10.616;2024-01-11T04:53:10;97661.22;;;-7.25;100.00
57628;BME280;43451;49.060;10.616;2024-01-11T04:55:36;97670.00;;;-7.14;100.00
57628;BME280;43451;49.060;10.616;2024-01-11T04:58:02;97681.50;;;-7.31;100.00
57628;BME280;43451;49.060;10.616;2024-01-11T05:00:28;97675.59;;;-7.43;100.00
57628;BME280;43451;49.060;10.616;2024-01-11T05:02:54;97674.72;;;-7.54;100.00
57628;BME280;43451;49.060;10.616;2024-01-11T05:05:20;97680.50;;;-7.57;100.00
57628;BME280;43451;49.060;10.616;2024-01-11T05:07:46;97679.44;;;-7.56;100.00
57628;BME280;43451;49.060;10.616;2024-01-11T05:10:11;97679.50;;;-7.51;100.00
57628;BME280;43451;49.060;10.616;2024-01-11T05:12:37;97691.19;;;-7.41;100.00
57628;BME280;43451;49.060;10.616;2024-01-11T05:15:04;97678.50;;;-7.44;100.00
57628;BME280;43451;49.060;10.616;2024-01-11T05:17:30;97684.84;;;-7.40;100.00
57628;BME280;43451;49.060;10.616;2024-01-11T05:19:56;97683.78;;;-7.44;100.00
57628;BME280;43451;49.060;10.616;2024-01-11T05:22:21;97699.13;;;-7.36;100.00
57628;BME280;43451;49.060;10.616;2024-01-11T05:24:47;97691.22;;;-7.36;100.00
57628;BME280;43451;49.060;10.616;2024-01-11T05:27:13;97690.06;;;-7.45;100.00
57628;BME280;43451;49.060;10.616;2024-01-11T05:29:38;97692.63;;;-7.56;100.00
57628;BME280;43451;49.060;10.616;2024-01-11T05:32:04;97687.56;;;-7.62;100.00
57628;BME280;43451;49.060;10.616;2024-01-11T05:34:30;97697.28;;;-7.68;100.00
57628;BME280;43451;49.060;10.616;2024-01-11T05:36:55;97702.03;;;-7.65;100.00
57628;BME280;43451;49.060;10.616;2024-01-11T05:39:21;97704.97;;;-7.61;100.00
57628;BME280;43451;49.060;10.616;2024-01-11T05:41:46;97709.88;;;-7.48;100.00
57628;BME280;43451;49.060;10.616;2024-01-11T05:44:11;97712.25;;;-7.47;100.00
57628;BME280;43451;49.060;10.616;2024-01-11T05:46:37;97707.81;;;-7.41;100.00
57628;BME280;43451;49.060;10.616;2024-01-11T05:49:02;97709.66;;;-7.41;100.00
57628;BME280;43451;49.060;10.616;2024-01-11T05:51:28;97709.03;;;-7.49;100.00
57628;BME280;43451;49.060;10.616;2024-01-11T05:53:54;97704.88;;;-7.44;100.00
57628;BME280;43451;49.060;10.616;2024-01-11T05:56:20;97714.69;;;-7.40;100.00
57628;BME280;43451;49.060;10.616;2024-01-11T05:58:46;97707.25;;;-7.43;100.00
57628;BME280;43451;49.060;10.616;2024-01-11T06:01:11;97697.81;;;-7.39;100.00
57628;BME280;43451;49.060;10.616;2024-01-11T06:03:37;97702.25;;;-7.44;100.00
57628;BME280;43451;49.060;10.616;2024-01-11T06:06:04;97708.25;;;-7.49;100.00
57628;BME280;43451;49.060;10.616;2024-01-11T06:08:30;97720.94;;;-7.51;100.00
57628;BME280;43451;49.060;10.616;2024-01-11T06:10:56;97708.09;;;-7.37;100.00
57628;BME280;43451;49.060;10.616;2024-01-11T06:13:22;97712.03;;;-7.40;100.00
57628;BME280;43451;49.060;10.616;2024-01-11T06:15:47;97717.59;;;-7.36;100.00
57628;BME280;43451;49.060;10.616;2024-01-11T06:18:13;97722.34;;;-7.38;100.00
57628;BME280;43451;49.060;10.616;2024-01-11T06:20:38;97714.44;;;-7.38;100.00
57628;BME280;43451;49.060;10.616;2024-01-11T06:23:04;97721.09;;;-7.31;100.00
57628;BME280;43451;49.060;10.616;2024-01-11T06:25:29;97706.47;;;-7.43;100.00
57628;BME280;43451;49.060;10.616;2024-01-11T06:27:55;97703.25;;;-7.51;100.00
57628;BME280;43451;49.060;10.616;2024-01-11T06:30:20;97711.16;;;-7.51;100.00
57628;BME280;43451;49.060;10.616;2024-01-11T06:32:46;97708.38;;;-7.39;100.00
57628;BME280;43451;49.060;10.616;2024-01-11T06:35:12;97710.66;;;-7.48;100.00
57628;BME280;43451;49.060;10.616;2024-01-11T06:37:37;97704.19;;;-7.35;100.00
57628;BME280;43451;49.060;10.616;2024-01-11T06:40:03;97709.09;;;-7.43;100.00
57628;BME280;43451;49.060;10.616;2024-01-11T06:42:32;97710.75;;;-7.37;100.00
57628;BME280;43451;49.060;10.616;2024-01-11T06:44:58;97716.03;;;-7.37;100.00
57628;BME280;43451;49.060;10.616;2024-01-11T06:47:23;97718.16;;;-7.34;100.00
57628;BME280;43451;49.060;10.616;2024-01-11T06:49:49;97711.81;;;-7.38;100.00
57628;BME280;43451;49.060;10.616;2024-01-11T06:52:14;97722.31;;;-7.43;100.00
57628;BME280;43451;49.060;10.616;2024-01-11T06:54:40;97723.22;;;-7.60;100.00
57628;BME280;43451;49.060;10.616;2024-01-11T06:57:05;97729.06;;;-7.53;100.00
57628;BME280;43451;49.060;10.616;2024-01-11T06:59:31;97732.41;;;-7.62;100.00
57628;BME280;43451;49.060;10.616;2024-01-11T07:01:56;97738.44;;;-7.67;100.00
57628;BME280;43451;49.060;10.616;2024-01-11T07:04:22;97740.53;;;-7.69;100.00
57628;BME280;43451;49.060;10.616;2024-01-11T07:06:47;97747.69;;;-7.64;100.00
57628;BME280;43451;49.060;10.616;2024-01-11T07:09:13;97761.13;;;-7.66;100.00
57628;BME280;43451;49.060;10.616;2024-01-11T07:11:38;97767.00;;;-7.59;100.00
57628;BME280;43451;49.060;10.616;2024-01-11T07:14:04;97773.88;;;-7.58;100.00
57628;BME280;43451;49.060;10.616;2024-01-11T07:16:30;97775.56;;;-7.47;100.00
57628;BME280;43451;49.060;10.616;2024-01-11T07:18:56;97775.22;;;-7.55;100.00
57628;BME280;43451;49.060;10.616;2024-01-11T07:21:23;97768.72;;;-7.48;100.00
57628;BME280;43451;49.060;10.616;2024-01-11T07:24:01;97763.34;;;-7.58;100.00
57628;BME280;43451;49.060;10.616;2024-01-11T07:26:27;97758.09;;;-7.53;100.00
57628;BME280;43451;49.060;10.616;2024-01-11T07:28:53;97756.44;;;-7.59;100.00
57628;BME280;43451;49.060;10.616;2024-01-11T07:31:21;97757.66;;;-7.44;100.00
57628;BME280;43451;49.060;10.616;2024-01-11T07:33:47;97767.44;;;-7.40;100.00
57628;BME280;43451;49.060;10.616;2024-01-11T07:36:13;97777.78;;;-7.38;100.00
57628;BME280;43451;49.060;10.616;2024-01-11T07:38:38;97781.13;;;-7.43;100.00
57628;BME280;43451;49.060;10.616;2024-01-11T07:41:04;97786.63;;;-7.50;100.00
57628;BME280;43451;49.060;10.616;2024-01-11T07:43:29;97792.19;;;-7.46;100.00
57628;BME280;43451;49.060;10.616;2024-01-11T07:45:56;97797.28;;;-7.39;100.00
57628;BME280;43451;49.060;10.616;2024-01-11T07:48:22;97780.16;;;-7.37;100.00
57628;BME280;43451;49.060;10.616;2024-01-11T07:50:51;97796.19;;;-7.43;100.00
57628;BME280;43451;49.060;10.616;2024-01-11T07:53:16;97792.91;;;-7.29;100.00
57628;BME280;43451;49.060;10.616;2024-01-11T07:55:42;97792.50;;;-7.15;100.00
57628;BME280;43451;49.060;10.616;2024-01-11T07:58:08;97806.06;;;-7.07;100.00
57628;BME280;43451;49.060;10.616;2024-01-11T08:00:34;97801.34;;;-6.99;100.00
57628;BME280;43451;49.060;10.616;2024-01-11T08:03:00;97802.84;;;-7.09;100.00
57628;BME280;43451;49.060;10.616;2024-01-11T08:05:25;97789.22;;;-6.95;100.00
57628;BME280;43451;49.060;10.616;2024-01-11T08:07:51;97801.34;;;-6.99;100.00
57628;BME280;43451;49.060;10.616;2024-01-11T08:10:17;97794.84;;;-6.87;100.00
57628;BME280;43451;49.060;10.616;2024-01-11T08:12:42;97788.84;;;-6.77;100.00
57628;BME280;43451;49.060;10.616;2024-01-11T08:15:08;97793.63;;;-6.74;100.00
57628;BME280;43451;49.060;10.616;2024-01-11T08:17:46;97805.88;;;-6.63;100.00
57628;BME280;43451;49.060;10.616;2024-01-11T08:20:12;97808.47;;;-6.68;100.00
57628;BME280;43451;49.060;10.616;2024-01-11T08:22:42;97813.88;;;-6.52;100.00
57628;BME280;43451;49.060;10.616;2024-01-11T08:25:09;97806.78;;;-6.47;100.00
57628;BME280;43451;49.060;10.616;2024-01-11T08:27:35;97807.88;;;-6.38;100.00
57628;BME280;43451;49.060;10.616;2024-01-11T08:30:01;97805.09;;;-6.21;100.00
57628;BME280;43451;49.060;10.616;2024-01-11T08:32:30;97803.03;;;-6.09;100.00
57628;BME280;43451;49.060;10.616;2024-01-11T08:34:58;97799.66;;;-5.84;100.00
57628;BME280;43451;49.060;10.616;2024-01-11T08:37:24;97803.19;;;-5.63;100.00
57628;BME280;43451;49.060;10.616;2024-01-11T08:39:50;97814.34;;;-5.55;100.00
57628;BME280;43451;49.060;10.616;2024-01-11T08:42:15;97825.50;;;-5.43;100.00
57628;BME280;43451;49.060;10.616;2024-01-11T08:44:44;97833.97;;;-5.36;100.00
57628;BME280;43451;49.060;10.616;2024-01-11T08:47:10;97821.81;;;-5.27;100.00
57628;BME280;43451;49.060;10.616;2024-01-11T08:49:39;97829.28;;;-5.19;100.00
57628;BME280;43451;49.060;10.616;2024-01-11T08:52:05;97822.91;;;-5.23;100.00
57628;BME280;43451;49.060;10.616;2024-01-11T08:54:31;97836.72;;;-5.10;100.00
57628;BME280;43451;49.060;10.616;2024-01-11T08:57:00;97822.94;;;-5.02;100.00
57628;BME280;43451;49.060;10.616;2024-01-11T08:59:26;97817.13;;;-4.99;100.00
57628;BME280;43451;49.060;10.616;2024-01-11T09:01:52;97821.59;;;-5.05;100.00
57628;BME280;43451;49.060;10.616;2024-01-11T09:04:18;97818.94;;;-5.05;100.00
57628;BME280;43451;49.060;10.616;2024-01-11T09:06:44;97813.91;;;-5.01;100.00
57628;BME280;43451;49.060;10.616;2024-01-11T09:09:10;97821.88;;;-4.76;100.00
57628;BME280;43451;49.060;10.616;2024-01-11T09:11:37;97813.41;;;-4.57;100.00
57628;BME280;43451;49.060;10.616;2024-01-11T09:14:02;97811.31;;;-4.55;100.00
57628;BME280;43451;49.060;10.616;2024-01-11T09:16:28;97809.16;;;-4.38;100.00
57628;BME280;43451;49.060;10.616;2024-01-11T09:18:54;97796.44;;;-4.41;100.00
57628;BME280;43451;49.060;10.616;2024-01-11T09:21:19;97793.25;;;-4.43;100.00
57628;BME280;43451;49.060;10.616;2024-01-11T09:23:45;97794.53;;;-4.25;100.00
57628;BME280;43451;49.060;10.616;2024-01-11T09:26:10;97795.88;;;-4.17;100.00
57628;BME280;43451;49.060;10.616;2024-01-11T09:28:36;97797.97;;;-4.14;100.00
57628;BME280;43451;49.060;10.616;2024-01-11T09:31:02;97813.88;;;-3.99;100.00
57628;BME280;43451;49.060;10.616;2024-01-11T09:33:28;97808.53;;;-3.94;100.00
57628;BME280;43451;49.060;10.616;2024-01-11T09:35:54;97808.28;;;-3.92;100.00
57628;BME280;43451;49.060;10.616;2024-01-11T09:38:21;97807.69;;;-3.79;100.00
57628;BME280;43451;49.060;10.616;2024-01-11T09:41:05;97804.75;;;-3.78;100.00
57628;BME280;43451;49.060;10.616;2024-01-11T09:43:34;97800.81;;;-3.80;100.00
57628;BME280;43451;49.060;10.616;2024-01-11T09:46:04;97793.09;;;-3.82;100.00
57628;BME280;43451;49.060;10.616;2024-01-11T09:48:34;97794.66;;;-3.70;100.00
57628;BME280;43451;49.060;10.616;2024-01-11T09:51:02;97790.88;;;-3.59;100.00
57628;BME280;43451;49.060;10.616;2024-01-11T09:53:32;97789.78;;;-3.53;100.00
57628;BME280;43451;49.060;10.616;2024-01-11T09:55:59;97793.16;;;-3.37;100.00
57628;BME280;43451;49.060;10.616;2024-01-11T09:58:26;97799.25;;;-3.37;100.00
57628;BME280;43451;49.060;10.616;2024-01-11T10:00:55;97791.59;;;-3.38;100.00
57628;BME280;43451;49.060;10.616;2024-01-11T10:03:24;97785.19;;;-3.37;100.00
57628;BME280;43451;49.060;10.616;2024-01-11T10:05:54;97783.31;;;-3.32;100.00
57628;BME280;43451;49.060;10.616;2024-01-11T10:08:22;97789.44;;;-3.36;100.00
57628;BME280;43451;49.060;10.616;2024-01-11T10:10:48;97789.16;;;-3.35;100.00
57628;BME280;43451;49.060;10.616;2024-01-11T10:13:17;97797.06;;;-3.19;100.00
57628;BME280;43451;49.060;10.616;2024-01-11T10:15:43;97807.59;;;-3.04;100.00
57628;BME280;43451;49.060;10.616;2024-01-11T10:18:09;97800.53;;;-2.85;100.00
57628;BME280;43451;49.060;10.616;2024-01-11T10:20:36;97796.16;;;-2.70;100.00
57628;BME280;43451;49.060;10.616;2024-01-11T10:23:02;97778.72;;;-2.82;100.00
57628;BME280;43451;49.060;10.616;2024-01-11T10:25:28;97797.34;;;-2.87;100.00
57628;BME280;43451;49.060;10.616;2024-01-11T10:27:55;97807.84;;;-2.66;100.00
57628;BME280;43451;49.060;10.616;2024-01-11T10:30:20;97804.03;;;-2.55;100.00
57628;BME280;43451;49.060;10.616;2024-01-11T10:32:48;97794.41;;;-2.51;100.00
57628;BME280;43451;49.060;10.616;2024-01-11T10:35:14;97789.63;;;-2.54;100.00
57628;BME280;43451;49.060;10.616;2024-01-11T10:37:40;97801.34;;;-2.50;100.00
57628;BME280;43451;49.060;10.616;2024-01-11T10:40:08;97797.31;;;-2.47;100.00
57628;BME280;43451;49.060;10.616;2024-01-11T10:42:45;97793.25;;;-2.40;100.00
57628;BME280;43451;49.060;10.616;2024-01-11T10:45:15;97791.13;;;-2.38;100.00
57628;BME280;43451;49.060;10.616;2024-01-11T10:47:55;97772.28;;;-2.17;100.00
57628;BME280;43451;49.060;10.616;2024-01-11T10:50:23;97779.28;;;-2.26;100.00
57628;BME280;43451;49.060;10.616;2024-01-11T10:55:18;97771.09;;;-2.06;100.00
57628;BME280;43451;49.060;10.616;2024-01-11T10:57:46;97771.19;;;-1.92;100.00
57628;BME280;43451;49.060;10.616;2024-01-11T11:00:13;97765.94;;;-1.97;100.00
57628;BME280;43451;49.060;10.616;2024-01-11T11:02:40;97766.41;;;-1.90;100.00
57628;BME280;43451;49.060;10.616;2024-01-11T11:05:07;97759.72;;;-2.12;100.00
57628;BME280;43451;49.060;10.616;2024-01-11T11:07:35;97756.41;;;-2.03;100.00
57628;BME280;43451;49.060;10.616;2024-01-11T11:10:02;97756.75;;;-1.86;100.00
57628;BME280;43451;49.060;10.616;2024-01-11T11:12:32;97767.28;;;-1.76;98.72
57628;BME280;43451;49.060;10.616;2024-01-11T11:14:59;97766.94;;;-1.69;98.82
57628;BME280;43451;49.060;10.616;2024-01-11T11:17:26;97756.44;;;-1.60;99.69
57628;BME280;43451;49.060;10.616;2024-01-11T11:19:52;97778.13;;;-1.48;99.76
57628;BME280;43451;49.060;10.616;2024-01-11T11:22:19;97769.78;;;-1.42;98.70
57628;BME280;43451;49.060;10.616;2024-01-11T11:24:45;97766.53;;;-1.38;97.91
57628;BME280;43451;49.060;10.616;2024-01-11T11:27:16;97758.25;;;-1.37;100.00
57628;BME280;43451;49.060;10.616;2024-01-11T11:29:41;97749.75;;;-1.39;100.00
57628;BME280;43451;49.060;10.616;2024-01-11T11:32:10;97747.09;;;-1.39;98.88
57628;BME280;43451;49.060;10.616;2024-01-11T11:34:46;97745.66;;;-1.31;99.55
57628;BME280;43451;49.060;10.616;2024-01-11T11:37:12;97756.31;;;-1.31;98.80
57628;BME280;43451;49.060;10.616;2024-01-11T11:39:37;97743.78;;;-1.31;99.77
57628;BME280;43451;49.060;10.616;2024-01-11T11:42:04;97748.09;;;-1.16;98.98
57628;BME280;43451;49.060;10.616;2024-01-11T11:44:30;97744.13;;;-1.19;99.08
57628;BME280;43451;49.060;10.616;2024-01-11T11:47:22;97753.94;;;-1.14;100.00
57628;BME280;43451;49.060;10.616;2024-01-11T11:50:10;97752.91;;;-0.99;99.41
57628;BME280;43451;49.060;10.616;2024-01-11T11:52:40;97747.19;;;-0.93;98.89
57628;BME280;43451;49.060;10.616;2024-01-11T11:55:08;97744.03;;;-0.95;98.49
57628;BME280;43451;49.060;10.616;2024-01-11T11:57:34;97739.28;;;-0.98;100.00
57628;BME280;43451;49.060;10.616;2024-01-11T12:00:00;97730.03;;;-0.86;100.00
57628;BME280;43451;49.060;10.616;2024-01-11T12:02:32;97735.56;;;-0.83;99.20
57628;BME280;43451;49.060;10.616;2024-01-11T12:05:01;97713.31;;;-0.59;97.47
57628;BME280;43451;49.060;10.616;2024-01-11T12:07:27;97715.91;;;-0.40;94.96
57628;BME280;43451;49.060;10.616;2024-01-11T12:09:53;97713.78;;;-0.57;96.61
57628;BME280;43451;49.060;10.616;2024-01-11T12:12:18;97706.41;;;-0.47;97.16
57628;BME280;43451;49.060;10.616;2024-01-11T12:14:47;97715.00;;;-0.36;95.42
57628;BME280;43451;49.060;10.616;2024-01-11T12:17:14;97716.22;;;-0.28;94.82
57628;BME280;43451;49.060;10.616;2024-01-11T12:19:39;97708.03;;;-0.32;96.91
57628;BME280;43451;49.060;10.616;2024-01-11T12:22:05;97711.38;;;-0.40;95.19
57628;BME280;43451;49.060;10.616;2024-01-11T12:24:31;97708.28;;;-0.47;95.92
57628;BME280;43451;49.060;10.616;2024-01-11T12:26:59;97715.22;;;-0.32;94.10
57628;BME280;43451;49.060;10.616;2024-01-11T12:29:25;97712.06;;;-0.20;94.07
57628;BME280;43451;49.060;10.616;2024-01-11T12:31:51;97713.25;;;-0.27;94.76
57628;BME280;43451;49.060;10.616;2024-01-11T12:34:17;97716.22;;;-0.28;92.41
57628;BME280;43451;49.060;10.616;2024-01-11T12:36:42;97721.88;;;-0.16;91.48
57628;BME280;43451;49.060;10.616;2024-01-11T12:39:10;97722.84;;;-0.12;91.43